sensor_id;sensor_type;location;lat;lon;timestamp;temperature;humidity
69598;SHT31;56802;51.184;-115.558;2022-10-22T00:02:08;5.03;61.47
69598;SHT31;56802;51.184;-115.558;2022-10-22T00:04:38;4.99;61.67
69598;SHT31;56802;51.184;-115.558;2022-10-22T00:07:07;4.92;61.82
69598;SHT31;56802;51.184;-115.558;2022-10-22T00:09:36;4.87;61.98
69598;SHT31;56802;51.184;-115.558;2022-10-22T00:12:05;4.85;62.16
69598;SHT31;56802;51.184;-115.558;2022-10-22T00:14:35;4.81;62.21
69598;SHT31;56802;51.184;-115.558;2022-10-22T00:17:05;4.80;62.35
69598;SHT31;56802;51.184;-115.558;2022-10-22T00:19:37;4.79;62.36
69598;SHT31;56802;51.184;-115.558;2022-10-22T00:22:07;4.83;62.40
69598;SHT31;56802;51.184;-115.558;2022-10-22T00:24:39;4.85;62.49
69598;SHT31;56802;51.184;-115.558;2022-10-22T00:27:09;4.83;62.60
69598;SHT31;56802;51.184;-115.558;2022-10-22T00:29:40;4.88;62.44
69598;SHT31;56802;51.184;-115.558;2022-10-22T00:32:09;4.88;62.38
69598;SHT31;56802;51.184;-115.558;2022-10-22T00:34:39;4.78;62.57
69598;SHT31;56802;51.184;-115.558;2022-10-22T00:37:08;4.71;62.67
69598;SHT31;56802;51.184;-115.558;2022-10-22T00:39:38;4.66;62.83
69598;SHT31;56802;51.184;-115.558;2022-10-22T00:42:10;4.62;62.92
69598;SHT31;56802;51.184;-115.558;2022-10-22T00:50:52;4.53;63.14
69598;SHT31;56802;51.184;-115.558;2022-10-22T00:53:46;4.49;63.24
69598;SHT31;56802;51.184;-115.558;2022-10-22T00:56:22;4.43;63.38
69598;SHT31;56802;51.184;-115.558;2022-10-22T00:58:53;4.42;63.40
69598;SHT31;56802;51.184;-115.558;2022-10-22T01:01:28;4.41;63.46
69598;SHT31;56802;51.184;-115.558;2022-10-22T01:03:59;4.39;63.59
69598;SHT31;56802;51.184;-115.558;2022-10-22T01:06:29;4.37;63.65
69598;SHT31;56802;51.184;-115.558;2022-10-22T01:20:49;4.08;64.60
69598;SHT31;56802;51.184;-115.558;2022-10-22T01:29:28;4.07;64.92
69598;SHT31;56802;51.184;-115.558;2022-10-22T01:32:19;4.07;65.04
69598;SHT31;56802;51.184;-115.558;2022-10-22T01:34:53;4.09;65.10
69598;SHT31;56802;51.184;-115.558;2022-10-22T01:37:31;4.09;65.20
69598;SHT31;56802;51.184;-115.558;2022-10-22T01:40:09;4.08;65.26
69598;SHT31;56802;51.184;-115.558;2022-10-22T01:42:41;4.09;65.30
69598;SHT31;56802;51.184;-115.558;2022-10-22T01:45:21;4.10;65.20
69598;SHT31;56802;51.184;-115.558;2022-10-22T01:50:44;4.03;65.50
69598;SHT31;56802;51.184;-115.558;2022-10-22T01:56:36;3.97;65.74
69598;SHT31;56802;51.184;-115.558;2022-10-22T01:59:15;3.94;65.82
69598;SHT31;56802;51.184;-115.558;2022-10-22T02:02:24;3.89;66.05
69598;SHT31;56802;51.184;-115.558;2022-10-22T02:05:15;3.86;66.25
69598;SHT31;56802;51.184;-115.558;2022-10-22T02:08:13;3.85;66.27
69598;SHT31;56802;51.184;-115.558;2022-10-22T02:10:49;3.80;66.46
69598;SHT31;56802;51.184;-115.558;2022-10-22T02:13:42;3.75;66.56
69598;SHT31;56802;51.184;-115.558;2022-10-22T02:16:17;3.72;66.69
69598;SHT31;56802;51.184;-115.558;2022-10-22T02:19:06;3.71;66.88
69598;SHT31;56802;51.184;-115.558;2022-10-22T02:21:56;3.77;66.87
69598;SHT31;56802;51.184;-115.558;2022-10-22T02:24:26;3.81;66.74
69598;SHT31;56802;51.184;-115.558;2022-10-22T02:35:47;3.87;66.72
69598;SHT31;56802;51.184;-115.558;2022-10-22T02:38:21;3.86;66.84
69598;SHT31;56802;51.184;-115.558;2022-10-22T02:40:54;3.85;66.89
69598;SHT31;56802;51.184;-115.558;2022-10-22T02:43:24;3.83;67.01
69598;SHT31;56802;51.184;-115.558;2022-10-22T02:45:55;3.81;67.34
69598;SHT31;56802;51.184;-115.558;2022-10-22T02:48:24;3.80;67.60
69598;SHT31;56802;51.184;-115.558;2022-10-22T02:50:54;3.72;67.68
69598;SHT31;56802;51.184;-115.558;2022-10-22T02:53:23;3.71;67.96
69598;SHT31;56802;51.184;-115.558;2022-10-22T02:55:53;3.68;68.19
69598;SHT31;56802;51.184;-115.558;2022-10-22T02:58:22;3.69;68.41
69598;SHT31;56802;51.184;-115.558;2022-10-22T03:00:51;3.78;68.67
69598;SHT31;56802;51.184;-115.558;2022-10-22T03:03:21;3.79;68.64
69598;SHT31;56802;51.184;-115.558;2022-10-22T03:05:50;3.81;68.62
69598;SHT31;56802;51.184;-115.558;2022-10-22T03:08:20;3.79;68.88
69598;SHT31;56802;51.184;-115.558;2022-10-22T03:10:49;3.79;69.16
69598;SHT31;56802;51.184;-115.558;2022-10-22T03:13:18;3.85;69.26
69598;SHT31;56802;51.184;-115.558;2022-10-22T03:15:47;3.85;69.31
69598;SHT31;56802;51.184;-115.558;2022-10-22T03:18:19;3.83;69.42
69598;SHT31;56802;51.184;-115.558;2022-10-22T03:20:48;3.78;69.72
69598;SHT31;56802;51.184;-115.558;2022-10-22T03:23:17;3.77;69.98
69598;SHT31;56802;51.184;-115.558;2022-10-22T03:25:50;3.78;70.19
69598;SHT31;56802;51.184;-115.558;2022-10-22T03:28:19;3.78;70.61
69598;SHT31;56802;51.184;-115.558;2022-10-22T03:30:48;3.75;70.83
69598;SHT31;56802;51.184;-115.558;2022-10-22T03:33:17;3.71;70.82
69598;SHT31;56802;51.184;-115.558;2022-10-22T03:35:46;3.66;71.00
69598;SHT31;56802;51.184;-115.558;2022-10-22T03:38:16;3.62;71.31
69598;SHT31;56802;51.184;-115.558;2022-10-22T03:40:45;3.57;71.38
69598;SHT31;56802;51.184;-115.558;2022-10-22T03:43:15;3.59;71.60
69598;SHT31;56802;51.184;-115.558;2022-10-22T03:45:44;3.67;71.61
69598;SHT31;56802;51.184;-115.558;2022-10-22T03:48:14;3.70;71.57
69598;SHT31;56802;51.184;-115.558;2022-10-22T03:50:43;3.69;71.71
69598;SHT31;56802;51.184;-115.558;2022-10-22T03:53:12;3.69;71.78
69598;SHT31;56802;51.184;-115.558;2022-10-22T03:55:41;3.63;71.93
69598;SHT31;56802;51.184;-115.558;2022-10-22T03:58:10;3.59;72.05
69598;SHT31;56802;51.184;-115.558;2022-10-22T04:00:39;3.58;72.21
69598;SHT31;56802;51.184;-115.558;2022-10-22T04:03:09;3.55;72.40
69598;SHT31;56802;51.184;-115.558;2022-10-22T04:05:38;3.53;72.61
69598;SHT31;56802;51.184;-115.558;2022-10-22T04:08:07;3.44;72.71
69598;SHT31;56802;51.184;-115.558;2022-10-22T04:10:36;3.37;73.02
69598;SHT31;56802;51.184;-115.558;2022-10-22T04:13:05;3.33;73.16
69598;SHT31;56802;51.184;-115.558;2022-10-22T04:15:34;3.30;73.30
69598;SHT31;56802;51.184;-115.558;2022-10-22T04:18:03;3.30;73.48
69598;SHT31;56802;51.184;-115.558;2022-10-22T04:20:33;3.30;73.56
69598;SHT31;56802;51.184;-115.558;2022-10-22T04:23:02;3.29;73.87
69598;SHT31;56802;51.184;-115.558;2022-10-22T04:25:31;3.26;73.79
69598;SHT31;56802;51.184;-115.558;2022-10-22T04:28:00;3.20;74.16
69598;SHT31;56802;51.184;-115.558;2022-10-22T04:30:29;3.17;74.52
69598;SHT31;56802;51.184;-115.558;2022-10-22T04:32:58;3.15;74.70
69598;SHT31;56802;51.184;-115.558;2022-10-22T04:35:28;3.11;74.78
69598;SHT31;56802;51.184;-115.558;2022-10-22T04:37:57;3.10;74.88
69598;SHT31;56802;51.184;-115.558;2022-10-22T04:40:26;3.11;75.07
69598;SHT31;56802;51.184;-115.558;2022-10-22T04:42:55;3.02;75.21
69598;SHT31;56802;51.184;-115.558;2022-10-22T04:45:24;2.98;75.41
69598;SHT31;56802;51.184;-115.558;2022-10-22T04:47:54;3.00;75.51
69598;SHT31;56802;51.184;-115.558;2022-10-22T04:50:23;2.98;75.66
69598;SHT31;56802;51.184;-115.558;2022-10-22T04:52:53;2.93;75.70
69598;SHT31;56802;51.184;-115.558;2022-10-22T04:55:22;2.91;75.95
69598;SHT31;56802;51.184;-115.558;2022-10-22T04:57:51;2.93;76.14
69598;SHT31;56802;51.184;-115.558;2022-10-22T05:00:20;2.94;76.18
69598;SHT31;56802;51.184;-115.558;2022-10-22T05:02:50;2.93;76.29
69598;SHT31;56802;51.184;-115.558;2022-10-22T05:05:19;2.98;76.34
69598;SHT31;56802;51.184;-115.558;2022-10-22T05:07:49;3.00;76.47
69598;SHT31;56802;51.184;-115.558;2022-10-22T05:10:19;3.06;76.28
69598;SHT31;56802;51.184;-115.558;2022-10-22T05:12:48;3.12;76.09
69598;SHT31;56802;51.184;-115.558;2022-10-22T05:15:17;3.10;76.14
69598;SHT31;56802;51.184;-115.558;2022-10-22T05:17:46;3.06;76.39
69598;SHT31;56802;51.184;-115.558;2022-10-22T05:20:15;2.97;76.50
69598;SHT31;56802;51.184;-115.558;2022-10-22T05:22:44;2.93;76.52
69598;SHT31;56802;51.184;-115.558;2022-10-22T05:25:14;2.92;76.54
69598;SHT31;56802;51.184;-115.558;2022-10-22T05:27:43;2.90;76.48
69598;SHT31;56802;51.184;-115.558;2022-10-22T05:30:17;2.89;76.63
69598;SHT31;56802;51.184;-115.558;2022-10-22T05:32:46;2.87;76.93
69598;SHT31;56802;51.184;-115.558;2022-10-22T05:35:15;2.87;77.02
69598;SHT31;56802;51.184;-115.558;2022-10-22T05:37:44;2.89;76.87
69598;SHT31;56802;51.184;-115.558;2022-10-22T05:40:13;2.95;76.78
69598;SHT31;56802;51.184;-115.558;2022-10-22T05:42:57;2.99;76.66
69598;SHT31;56802;51.184;-115.558;2022-10-22T05:45:26;2.96;76.75
69598;SHT31;56802;51.184;-115.558;2022-10-22T05:47:56;2.90;77.13
69598;SHT31;56802;51.184;-115.558;2022-10-22T05:50:25;2.90;77.19
69598;SHT31;56802;51.184;-115.558;2022-10-22T05:52:55;2.90;76.98
69598;SHT31;56802;51.184;-115.558;2022-10-22T05:55:24;2.90;77.17
69598;SHT31;56802;51.184;-115.558;2022-10-22T05:57:53;2.82;77.34
69598;SHT31;56802;51.184;-115.558;2022-10-22T06:00:22;2.82;77.30
69598;SHT31;56802;51.184;-115.558;2022-10-22T06:02:52;2.79;77.48
69598;SHT31;56802;51.184;-115.558;2022-10-22T06:05:21;2.75;77.71
69598;SHT31;56802;51.184;-115.558;2022-10-22T06:07:50;2.76;77.72
69598;SHT31;56802;51.184;-115.558;2022-10-22T06:10:19;2.75;77.75
69598;SHT31;56802;51.184;-115.558;2022-10-22T06:12:50;2.76;77.74
69598;SHT31;56802;51.184;-115.558;2022-10-22T06:15:19;2.78;77.59
69598;SHT31;56802;51.184;-115.558;2022-10-22T06:17:48;2.82;77.66
69598;SHT31;56802;51.184;-115.558;2022-10-22T06:20:17;2.87;77.53
69598;SHT31;56802;51.184;-115.558;2022-10-22T06:22:47;2.88;77.50
69598;SHT31;56802;51.184;-115.558;2022-10-22T06:25:16;2.91;77.57
69598;SHT31;56802;51.184;-115.558;2022-10-22T06:27:48;2.86;77.68
69598;SHT31;56802;51.184;-115.558;2022-10-22T06:30:21;2.88;77.52
69598;SHT31;56802;51.184;-115.558;2022-10-22T06:32:50;2.84;77.46
69598;SHT31;56802;51.184;-115.558;2022-10-22T06:35:19;2.74;77.80
69598;SHT31;56802;51.184;-115.558;2022-10-22T06:37:48;2.66;77.97
69598;SHT31;56802;51.184;-115.558;2022-10-22T06:40:17;2.62;78.04
69598;SHT31;56802;51.184;-115.558;2022-10-22T06:42:46;2.59;78.03
69598;SHT31;56802;51.184;-115.558;2022-10-22T06:45:15;2.54;78.06
69598;SHT31;56802;51.184;-115.558;2022-10-22T06:47:45;2.52;78.28
69598;SHT31;56802;51.184;-115.558;2022-10-22T06:50:15;2.49;78.42
69598;SHT31;56802;51.184;-115.558;2022-10-22T06:52:44;2.44;78.68
69598;SHT31;56802;51.184;-115.558;2022-10-22T06:55:13;2.36;78.88
69598;SHT31;56802;51.184;-115.558;2022-10-22T06:57:42;2.23;79.12
69598;SHT31;56802;51.184;-115.558;2022-10-22T07:00:12;2.12;79.37
69598;SHT31;56802;51.184;-115.558;2022-10-22T07:02:42;2.03;79.37
69598;SHT31;56802;51.184;-115.558;2022-10-22T07:05:11;2.00;79.64
69598;SHT31;56802;51.184;-115.558;2022-10-22T07:07:40;1.83;79.70
69598;SHT31;56802;51.184;-115.558;2022-10-22T07:10:09;1.70;79.92
69598;SHT31;56802;51.184;-115.558;2022-10-22T07:12:38;1.62;80.40
69598;SHT31;56802;51.184;-115.558;2022-10-22T07:15:09;1.54;80.37
69598;SHT31;56802;51.184;-115.558;2022-10-22T07:17:38;1.42;80.37
69598;SHT31;56802;51.184;-115.558;2022-10-22T07:20:07;1.35;80.51
69598;SHT31;56802;51.184;-115.558;2022-10-22T07:22:39;1.31;80.54
69598;SHT31;56802;51.184;-115.558;2022-10-22T07:25:09;1.28;80.53
69598;SHT31;56802;51.184;-115.558;2022-10-22T07:27:38;1.28;80.54
69598;SHT31;56802;51.184;-115.558;2022-10-22T07:30:08;1.21;80.37
69598;SHT31;56802;51.184;-115.558;2022-10-22T07:32:37;1.16;80.42
69598;SHT31;56802;51.184;-115.558;2022-10-22T07:35:07;1.13;80.32
69598;SHT31;56802;51.184;-115.558;2022-10-22T07:37:36;1.13;80.04
69598;SHT31;56802;51.184;-115.558;2022-10-22T07:40:06;1.16;80.11
69598;SHT31;56802;51.184;-115.558;2022-10-22T07:42:36;1.17;79.67
69598;SHT31;56802;51.184;-115.558;2022-10-22T07:45:06;1.21;79.64
69598;SHT31;56802;51.184;-115.558;2022-10-22T07:47:35;1.24;79.60
69598;SHT31;56802;51.184;-115.558;2022-10-22T07:50:05;1.27;79.66
69598;SHT31;56802;51.184;-115.558;2022-10-22T07:52:34;1.27;79.57
69598;SHT31;56802;51.184;-115.558;2022-10-22T07:55:04;1.27;79.71
69598;SHT31;56802;51.184;-115.558;2022-10-22T07:57:34;1.28;79.87
69598;SHT31;56802;51.184;-115.558;2022-10-22T08:00:06;1.29;79.68
69598;SHT31;56802;51.184;-115.558;2022-10-22T08:02:36;1.30;79.47
69598;SHT31;56802;51.184;-115.558;2022-10-22T08:05:06;1.30;79.34
69598;SHT31;56802;51.184;-115.558;2022-10-22T08:07:36;1.29;79.23
69598;SHT31;56802;51.184;-115.558;2022-10-22T08:10:05;1.30;79.34
69598;SHT31;56802;51.184;-115.558;2022-10-22T08:12:36;1.35;79.44
69598;SHT31;56802;51.184;-115.558;2022-10-22T08:15:06;1.35;79.44
69598;SHT31;56802;51.184;-115.558;2022-10-22T08:17:36;1.37;79.37
69598;SHT31;56802;51.184;-115.558;2022-10-22T08:20:06;1.39;79.45
69598;SHT31;56802;51.184;-115.558;2022-10-22T08:22:39;1.41;79.29
69598;SHT31;56802;51.184;-115.558;2022-10-22T08:25:08;1.42;79.37
69598;SHT31;56802;51.184;-115.558;2022-10-22T08:27:38;1.42;79.43
69598;SHT31;56802;51.184;-115.558;2022-10-22T08:30:07;1.44;79.45
69598;SHT31;56802;51.184;-115.558;2022-10-22T08:32:37;1.41;79.36
69598;SHT31;56802;51.184;-115.558;2022-10-22T08:35:07;1.42;79.43
69598;SHT31;56802;51.184;-115.558;2022-10-22T08:37:42;1.42;79.50
69598;SHT31;56802;51.184;-115.558;2022-10-22T08:40:18;1.38;79.62
69598;SHT31;56802;51.184;-115.558;2022-10-22T08:48:42;1.31;79.68
69598;SHT31;56802;51.184;-115.558;2022-10-22T08:51:22;1.33;79.73
69598;SHT31;56802;51.184;-115.558;2022-10-22T08:59:50;1.22;79.62
69598;SHT31;56802;51.184;-115.558;2022-10-22T09:08:37;0.94;80.37
69598;SHT31;56802;51.184;-115.558;2022-10-22T09:13:44;0.88;80.48
69598;SHT31;56802;51.184;-115.558;2022-10-22T09:19:08;0.73;80.55
69598;SHT31;56802;51.184;-115.558;2022-10-22T09:22:00;0.77;80.63
69598;SHT31;56802;51.184;-115.558;2022-10-22T09:24:53;0.78;80.32
69598;SHT31;56802;51.184;-115.558;2022-10-22T09:27:36;0.79;80.35
69598;SHT31;56802;51.184;-115.558;2022-10-22T09:30:09;0.82;80.17
69598;SHT31;56802;51.184;-115.558;2022-10-22T09:32:55;0.77;80.02
69598;SHT31;56802;51.184;-115.558;2022-10-22T09:38:22;0.67;80.31
69598;SHT31;56802;51.184;-115.558;2022-10-22T09:40:56;0.64;80.25
69598;SHT31;56802;51.184;-115.558;2022-10-22T09:43:30;0.61;80.39
69598;SHT31;56802;51.184;-115.558;2022-10-22T09:46:03;0.56;80.52
69598;SHT31;56802;51.184;-115.558;2022-10-22T09:48:36;0.54;80.57
69598;SHT31;56802;51.184;-115.558;2022-10-22T09:51:11;0.54;80.55
69598;SHT31;56802;51.184;-115.558;2022-10-22T09:53:56;0.56;80.50
69598;SHT31;56802;51.184;-115.558;2022-10-22T09:56:37;0.52;80.50
69598;SHT31;56802;51.184;-115.558;2022-10-22T09:59:18;0.53;80.55
69598;SHT31;56802;51.184;-115.558;2022-10-22T10:01:59;0.53;80.42
69598;SHT31;56802;51.184;-115.558;2022-10-22T10:04:46;0.51;80.33
69598;SHT31;56802;51.184;-115.558;2022-10-22T10:07:24;0.53;80.45
69598;SHT31;56802;51.184;-115.558;2022-10-22T10:09:58;0.52;80.50
69598;SHT31;56802;51.184;-115.558;2022-10-22T10:13:15;0.54;80.49
69598;SHT31;56802;51.184;-115.558;2022-10-22T10:15:43;0.54;80.47
69598;SHT31;56802;51.184;-115.558;2022-10-22T10:18:27;0.50;80.57
69598;SHT31;56802;51.184;-115.558;2022-10-22T10:21:34;0.50;80.70
69598;SHT31;56802;51.184;-115.558;2022-10-22T10:30:17;0.52;80.70
69598;SHT31;56802;51.184;-115.558;2022-10-22T10:38:56;0.48;80.41
69598;SHT31;56802;51.184;-115.558;2022-10-22T10:56:46;0.46;80.69
69598;SHT31;56802;51.184;-115.558;2022-10-22T11:05:38;0.53;80.66
69598;SHT31;56802;51.184;-115.558;2022-10-22T11:08:37;0.51;80.71
69598;SHT31;56802;51.184;-115.558;2022-10-22T11:14:26;0.46;80.79
69598;SHT31;56802;51.184;-115.558;2022-10-22T11:17:03;0.46;80.88
69598;SHT31;56802;51.184;-115.558;2022-10-22T11:22:30;0.33;81.22
69598;SHT31;56802;51.184;-115.558;2022-10-22T11:25:30;0.36;81.36
69598;SHT31;56802;51.184;-115.558;2022-10-22T11:28:18;0.36;81.26
69598;SHT31;56802;51.184;-115.558;2022-10-22T11:31:01;0.42;81.21
69598;SHT31;56802;51.184;-115.558;2022-10-22T11:34:24;0.44;81.27
69598;SHT31;56802;51.184;-115.558;2022-10-22T11:36:59;0.43;81.16
69598;SHT31;56802;51.184;-115.558;2022-10-22T11:42:21;0.45;80.95
69598;SHT31;56802;51.184;-115.558;2022-10-22T11:45:04;0.49;81.08
69598;SHT31;56802;51.184;-115.558;2022-10-22T11:53:30;0.43;80.94
69598;SHT31;56802;51.184;-115.558;2022-10-22T12:07:01;0.35;81.42
69598;SHT31;56802;51.184;-115.558;2022-10-22T12:09:31;0.34;81.54
69598;SHT31;56802;51.184;-115.558;2022-10-22T12:12:13;0.34;81.71
69598;SHT31;56802;51.184;-115.558;2022-10-22T12:14:53;0.33;81.51
69598;SHT31;56802;51.184;-115.558;2022-10-22T12:17:26;0.35;81.58
69598;SHT31;56802;51.184;-115.558;2022-10-22T12:20:00;0.34;81.44
69598;SHT31;56802;51.184;-115.558;2022-10-22T12:22:39;0.31;81.43
69598;SHT31;56802;51.184;-115.558;2022-10-22T12:25:20;0.35;81.56
69598;SHT31;56802;51.184;-115.558;2022-10-22T12:27:58;0.39;81.60
69598;SHT31;56802;51.184;-115.558;2022-10-22T12:30:31;0.38;81.42
69598;SHT31;56802;51.184;-115.558;2022-10-22T12:33:03;0.37;81.40
69598;SHT31;56802;51.184;-115.558;2022-10-22T12:35:42;0.42;81.53
69598;SHT31;56802;51.184;-115.558;2022-10-22T12:38:15;0.43;81.44
69598;SHT31;56802;51.184;-115.558;2022-10-22T12:40:50;0.43;81.33
69598;SHT31;56802;51.184;-115.558;2022-10-22T12:43:28;0.38;81.24
69598;SHT31;56802;51.184;-115.558;2022-10-22T12:45:57;0.36;81.32
69598;SHT31;56802;51.184;-115.558;2022-10-22T12:48:29;0.36;81.53
69598;SHT31;56802;51.184;-115.558;2022-10-22T12:51:03;0.35;81.67
69598;SHT31;56802;51.184;-115.558;2022-10-22T12:53:37;0.34;81.62
69598;SHT31;56802;51.184;-115.558;2022-10-22T12:56:22;0.35;81.60
69598;SHT31;56802;51.184;-115.558;2022-10-22T13:01:38;0.37;81.63
69598;SHT31;56802;51.184;-115.558;2022-10-22T13:06:50;0.29;81.44
69598;SHT31;56802;51.184;-115.558;2022-10-22T13:12:24;0.34;81.55
69598;SHT31;56802;51.184;-115.558;2022-10-22T13:18:20;0.34;81.65
69598;SHT31;56802;51.184;-115.558;2022-10-22T13:20:56;0.39;81.57
69598;SHT31;56802;51.184;-115.558;2022-10-22T13:23:30;0.38;81.67
69598;SHT31;56802;51.184;-115.558;2022-10-22T13:28:49;0.37;81.45
69598;SHT31;56802;51.184;-115.558;2022-10-22T13:31:29;0.37;81.36
69598;SHT31;56802;51.184;-115.558;2022-10-22T13:34:04;0.38;81.40
69598;SHT31;56802;51.184;-115.558;2022-10-22T13:36:39;0.39;81.44
69598;SHT31;56802;51.184;-115.558;2022-10-22T13:39:18;0.37;81.50
69598;SHT31;56802;51.184;-115.558;2022-10-22T13:41:50;0.31;81.50
69598;SHT31;56802;51.184;-115.558;2022-10-22T13:44:20;0.28;81.53
69598;SHT31;56802;51.184;-115.558;2022-10-22T13:46:48;0.32;81.62
69598;SHT31;56802;51.184;-115.558;2022-10-22T13:49:19;0.32;81.47
69598;SHT31;56802;51.184;-115.558;2022-10-22T13:51:53;0.32;81.47
69598;SHT31;56802;51.184;-115.558;2022-10-22T13:54:22;0.36;81.57
69598;SHT31;56802;51.184;-115.558;2022-10-22T13:56:52;0.30;81.57
69598;SHT31;56802;51.184;-115.558;2022-10-22T13:59:21;0.28;81.75
69598;SHT31;56802;51.184;-115.558;2022-10-22T14:01:50;0.29;81.77
69598;SHT31;56802;51.184;-115.558;2022-10-22T14:04:21;0.31;81.82
69598;SHT31;56802;51.184;-115.558;2022-10-22T14:06:50;0.34;81.72
69598;SHT31;56802;51.184;-115.558;2022-10-22T14:09:26;0.32;81.55
69598;SHT31;56802;51.184;-115.558;2022-10-22T14:11:55;0.29;81.59
69598;SHT31;56802;51.184;-115.558;2022-10-22T14:14:25;0.31;81.74
69598;SHT31;56802;51.184;-115.558;2022-10-22T14:16:54;0.31;81.76
69598;SHT31;56802;51.184;-115.558;2022-10-22T14:19:23;0.23;81.80
69598;SHT31;56802;51.184;-115.558;2022-10-22T14:21:52;0.15;81.94
69598;SHT31;56802;51.184;-115.558;2022-10-22T14:24:21;0.11;82.08
69598;SHT31;56802;51.184;-115.558;2022-10-22T14:26:50;0.15;81.98
69598;SHT31;56802;51.184;-115.558;2022-10-22T14:29:19;0.20;81.94
69598;SHT31;56802;51.184;-115.558;2022-10-22T14:31:49;0.22;82.05
69598;SHT31;56802;51.184;-115.558;2022-10-22T14:34:19;0.25;82.01
69598;SHT31;56802;51.184;-115.558;2022-10-22T14:36:48;0.29;81.92
69598;SHT31;56802;51.184;-115.558;2022-10-22T14:39:17;0.33;81.97
69598;SHT31;56802;51.184;-115.558;2022-10-22T14:41:48;0.38;81.91
69598;SHT31;56802;51.184;-115.558;2022-10-22T14:44:17;0.40;81.88
69598;SHT31;56802;51.184;-115.558;2022-10-22T14:46:46;0.43;81.82
69598;SHT31;56802;51.184;-115.558;2022-10-22T14:49:15;0.44;81.71
69598;SHT31;56802;51.184;-115.558;2022-10-22T14:51:44;0.42;81.71
69598;SHT31;56802;51.184;-115.558;2022-10-22T14:54:13;0.37;81.61
69598;SHT31;56802;51.184;-115.558;2022-10-22T14:56:42;0.32;81.79
69598;SHT31;56802;51.184;-115.558;2022-10-22T14:59:12;0.31;81.89
69598;SHT31;56802;51.184;-115.558;2022-10-22T15:01:42;0.34;81.94
69598;SHT31;56802;51.184;-115.558;2022-10-22T15:04:11;0.33;82.00
69598;SHT31;56802;51.184;-115.558;2022-10-22T15:06:40;0.33;81.95
69598;SHT31;56802;51.184;-115.558;2022-10-22T15:09:09;0.33;81.98
69598;SHT31;56802;51.184;-115.558;2022-10-22T15:11:39;0.31;81.76
69598;SHT31;56802;51.184;-115.558;2022-10-22T15:14:09;0.31;81.97
69598;SHT31;56802;51.184;-115.558;2022-10-22T15:16:38;0.33;82.10
69598;SHT31;56802;51.184;-115.558;2022-10-22T15:19:07;0.35;82.02
69598;SHT31;56802;51.184;-115.558;2022-10-22T15:21:37;0.38;82.13
69598;SHT31;56802;51.184;-115.558;2022-10-22T15:24:07;0.41;81.99
69598;SHT31;56802;51.184;-115.558;2022-10-22T15:26:37;0.45;81.85
69598;SHT31;56802;51.184;-115.558;2022-10-22T15:29:08;0.45;81.78
69598;SHT31;56802;51.184;-115.558;2022-10-22T15:31:42;0.47;81.80
69598;SHT31;56802;51.184;-115.558;2022-10-22T15:34:25;0.47;81.72
69598;SHT31;56802;51.184;-115.558;2022-10-22T15:37:00;0.50;81.86
69598;SHT31;56802;51.184;-115.558;2022-10-22T15:39:33;0.50;81.68
69598;SHT31;56802;51.184;-115.558;2022-10-22T15:42:02;0.46;81.57
69598;SHT31;56802;51.184;-115.558;2022-10-22T15:44:31;0.46;81.70
69598;SHT31;56802;51.184;-115.558;2022-10-22T15:47:03;0.47;81.72
69598;SHT31;56802;51.184;-115.558;2022-10-22T15:49:34;0.49;81.72
69598;SHT31;56802;51.184;-115.558;2022-10-22T15:52:08;0.53;81.74
69598;SHT31;56802;51.184;-115.558;2022-10-22T15:54:38;0.60;81.86
69598;SHT31;56802;51.184;-115.558;2022-10-22T15:57:10;0.64;81.62
69598;SHT31;56802;51.184;-115.558;2022-10-22T15:59:39;0.69;81.44
69598;SHT31;56802;51.184;-115.558;2022-10-22T16:02:09;0.62;81.20
69598;SHT31;56802;51.184;-115.558;2022-10-22T16:04:39;0.62;81.15
69598;SHT31;56802;51.184;-115.558;2022-10-22T16:07:08;0.61;81.07
69598;SHT31;56802;51.184;-115.558;2022-10-22T16:09:37;0.63;81.47
69598;SHT31;56802;51.184;-115.558;2022-10-22T16:12:06;0.67;81.39
69598;SHT31;56802;51.184;-115.558;2022-10-22T16:14:37;0.68;81.18
69598;SHT31;56802;51.184;-115.558;2022-10-22T16:17:06;0.68;81.17
69598;SHT31;56802;51.184;-115.558;2022-10-22T16:19:35;0.76;81.08
69598;SHT31;56802;51.184;-115.558;2022-10-22T16:22:04;0.81;81.19
69598;SHT31;56802;51.184;-115.558;2022-10-22T16:24:49;0.86;81.14
69598;SHT31;56802;51.184;-115.558;2022-10-22T16:27:18;0.90;80.96
69598;SHT31;56802;51.184;-115.558;2022-10-22T16:29:47;0.92;80.95
69598;SHT31;56802;51.184;-115.558;2022-10-22T16:32:17;0.99;80.81
69598;SHT31;56802;51.184;-115.558;2022-10-22T16:34:46;1.11;80.87
69598;SHT31;56802;51.184;-115.558;2022-10-22T16:37:15;1.16;80.60
69598;SHT31;56802;51.184;-115.558;2022-10-22T16:39:44;1.16;80.50
69598;SHT31;56802;51.184;-115.558;2022-10-22T16:42:13;1.19;80.53
69598;SHT31;56802;51.184;-115.558;2022-10-22T16:44:42;1.18;80.13
69598;SHT31;56802;51.184;-115.558;2022-10-22T16:47:11;1.17;80.13
69598;SHT31;56802;51.184;-115.558;2022-10-22T16:49:40;1.18;80.67
69598;SHT31;56802;51.184;-115.558;2022-10-22T16:52:10;1.18;80.36
69598;SHT31;56802;51.184;-115.558;2022-10-22T16:54:39;1.21;80.36
69598;SHT31;56802;51.184;-115.558;2022-10-22T16:57:08;1.22;80.56
69598;SHT31;56802;51.184;-115.558;2022-10-22T16:59:38;1.31;80.55
69598;SHT31;56802;51.184;-115.558;2022-10-22T17:02:10;1.37;80.62
69598;SHT31;56802;51.184;-115.558;2022-10-22T17:04:39;1.45;80.33
69598;SHT31;56802;51.184;-115.558;2022-10-22T17:07:08;1.50;80.24
69598;SHT31;56802;51.184;-115.558;2022-10-22T17:09:37;1.55;80.11
69598;SHT31;56802;51.184;-115.558;2022-10-22T17:12:07;1.59;79.91
69598;SHT31;56802;51.184;-115.558;2022-10-22T17:14:36;1.62;79.82
69598;SHT31;56802;51.184;-115.558;2022-10-22T17:17:05;1.63;79.77
69598;SHT31;56802;51.184;-115.558;2022-10-22T17:19:34;1.58;79.54
69598;SHT31;56802;51.184;-115.558;2022-10-22T17:22:05;1.57;79.53
69598;SHT31;56802;51.184;-115.558;2022-10-22T17:24:34;1.58;79.63
69598;SHT31;56802;51.184;-115.558;2022-10-22T17:27:05;1.62;79.69
69598;SHT31;56802;51.184;-115.558;2022-10-22T17:29:34;1.64;79.28
69598;SHT31;56802;51.184;-115.558;2022-10-22T17:32:04;1.65;79.26
69598;SHT31;56802;51.184;-115.558;2022-10-22T17:34:33;1.70;79.42
69598;SHT31;56802;51.184;-115.558;2022-10-22T17:37:02;1.77;79.39
69598;SHT31;56802;51.184;-115.558;2022-10-22T17:39:31;1.81;79.54
69598;SHT31;56802;51.184;-115.558;2022-10-22T17:42:00;1.87;79.34
69598;SHT31;56802;51.184;-115.558;2022-10-22T17:44:29;1.85;78.94
69598;SHT31;56802;51.184;-115.558;2022-10-22T17:46:58;1.87;78.88
69598;SHT31;56802;51.184;-115.558;2022-10-22T17:49:28;1.91;79.02
69598;SHT31;56802;51.184;-115.558;2022-10-22T18:04:15;2.52;77.48
69598;SHT31;56802;51.184;-115.558;2022-10-22T18:06:47;2.46;77.33